sensor_id;sensor_type;location;lat;lon;timestamp;pressure;altitude;pressure_sealevel;temperature;humidity
50774;BME280;36745;48.544;8.918;2022-11-25T00:00:26;97297.72;;;-0.42;100.00
50774;BME280;36745;48.544;8.918;2022-11-25T00:03:48;97304.59;;;-0.48;100.00
50774;BME280;36745;48.544;8.918;2022-11-25T00:07:10;97308.63;;;-0.34;100.00
50774;BME280;36745;48.544;8.918;2022-11-25T00:10:31;97307.81;;;-0.38;100.00
50774;BME280;36745;48.544;8.918;2022-11-25T00:13:54;97318.22;;;-0.40;100.00
50774;BME280;36745;48.544;8.918;2022-11-25T00:17:15;97309.97;;;-0.51;100.00
50774;BME280;36745;48.544;8.918;2022-11-25T00:20:37;97306.91;;;-0.50;100.00
50774;BME280;36745;48.544;8.918;2022-11-25T00:24:03;97306.16;;;-0.47;100.00
50774;BME280;36745;48.544;8.918;2022-11-25T00:27:25;97308.53;;;-0.42;100.00
50774;BME280;36745;48.544;8.918;2022-11-25T00:30:46;97303.56;;;-0.39;100.00
50774;BME280;36745;48.544;8.918;2022-11-25T00:34:12;97300.88;;;-0.36;100.00
50774;BME280;36745;48.544;8.918;2022-11-25T00:37:33;97294.75;;;-0.29;100.00
50774;BME280;36745;48.544;8.918;2022-11-25T00:40:55;97306.47;;;-0.22;100.00
50774;BME280;36745;48.544;8.918;2022-11-25T00:44:35;97309.25;;;-0.15;100.00
50774;BME280;36745;48.544;8.918;2022-11-25T00:47:56;97306.16;;;-0.17;100.00
50774;BME280;36745;48.544;8.918;2022-11-25T00:51:17;97304.97;;;-0.16;100.00
50774;BME280;36745;48.544;8.918;2022-11-25T00:54:38;97297.38;;;-0.03;100.00
50774;BME280;36745;48.544;8.918;2022-11-25T00:58:00;97293.59;;;0.05;100.00
50774;BME280;36745;48.544;8.918;2022-11-25T01:01:21;97285.84;;;0.07;100.00
50774;BME280;36745;48.544;8.918;2022-11-25T01:04:42;97293.97;;;0.04;100.00
50774;BME280;36745;48.544;8.918;2022-11-25T01:08:03;97285.84;;;0.07;100.00
50774;BME280;36745;48.544;8.918;2022-11-25T01:11:25;97281.31;;;0.15;100.00
50774;BME280;36745;48.544;8.918;2022-11-25T01:14:46;97289.88;;;0.20;100.00
50774;BME280;36745;48.544;8.918;2022-11-25T01:18:07;97284.19;;;0.32;100.00
50774;BME280;36745;48.544;8.918;2022-11-25T01:21:31;97283.00;;;0.33;100.00
50774;BME280;36745;48.544;8.918;2022-11-25T01:24:53;97297.09;;;0.50;100.00
50774;BME280;36745;48.544;8.918;2022-11-25T01:28:14;97284.38;;;0.54;100.00
50774;BME280;36745;48.544;8.918;2022-11-25T01:31:36;97279.66;;;0.47;100.00
50774;BME280;36745;48.544;8.918;2022-11-25T01:34:57;97280.81;;;0.50;100.00
50774;BME280;36745;48.544;8.918;2022-11-25T01:38:18;97287.06;;;0.54;100.00
50774;BME280;36745;48.544;8.918;2022-11-25T01:41:39;97281.22;;;0.48;100.00
50774;BME280;36745;48.544;8.918;2022-11-25T01:49:05;97293.22;;;0.47;100.00
50774;BME280;36745;48.544;8.918;2022-11-25T01:52:40;97296.28;;;0.46;100.00
50774;BME280;36745;48.544;8.918;2022-11-25T01:56:03;97298.31;;;0.56;100.00
50774;BME280;36745;48.544;8.918;2022-11-25T01:59:25;97292.00;;;0.41;100.00
50774;BME280;36745;48.544;8.918;2022-11-25T02:02:51;97299.72;;;0.39;100.00
50774;BME280;36745;48.544;8.918;2022-11-25T02:06:21;97280.88;;;0.57;100.00
50774;BME280;36745;48.544;8.918;2022-11-25T02:09:44;97275.00;;;0.48;100.00
50774;BME280;36745;48.544;8.918;2022-11-25T02:13:06;97260.69;;;0.51;100.00
50774;BME280;36745;48.544;8.918;2022-11-25T02:16:28;97262.59;;;0.43;100.00
50774;BME280;36745;48.544;8.918;2022-11-25T02:20:00;97268.44;;;0.49;100.00
50774;BME280;36745;48.544;8.918;2022-11-25T02:23:46;97269.09;;;0.38;100.00
50774;BME280;36745;48.544;8.918;2022-11-25T02:27:12;97262.97;;;0.45;100.00
50774;BME280;36745;48.544;8.918;2022-11-25T02:30:33;97264.03;;;0.33;100.00
50774;BME280;36745;48.544;8.918;2022-11-25T02:33:55;97268.22;;;0.27;100.00
50774;BME280;36745;48.544;8.918;2022-11-25T02:37:17;97258.94;;;0.28;100.00
50774;BME280;36745;48.544;8.918;2022-11-25T02:40:46;97269.06;;;0.31;100.00
50774;BME280;36745;48.544;8.918;2022-11-25T02:44:08;97271.34;;;0.29;100.00
50774;BME280;36745;48.544;8.918;2022-11-25T02:47:29;97263.16;;;0.22;100.00
50774;BME280;36745;48.544;8.918;2022-11-25T02:50:50;97272.94;;;0.34;100.00
50774;BME280;36745;48.544;8.918;2022-11-25T02:54:13;97269.06;;;0.31;100.00
50774;BME280;36745;48.544;8.918;2022-11-25T02:57:35;97257.47;;;0.34;100.00
50774;BME280;36745;48.544;8.918;2022-11-25T03:00:56;97262.16;;;0.37;100.00
50774;BME280;36745;48.544;8.918;2022-11-25T03:04:18;97264.44;;;0.32;100.00
50774;BME280;36745;48.544;8.918;2022-11-25T03:07:39;97264.44;;;0.35;100.00
50774;BME280;36745;48.544;8.918;2022-11-25T03:11:01;97262.19;;;0.45;100.00
50774;BME280;36745;48.544;8.918;2022-11-25T03:14:22;97255.59;;;0.42;100.00
50774;BME280;36745;48.544;8.918;2022-11-25T03:17:44;97251.31;;;0.37;100.00
50774;BME280;36745;48.544;8.918;2022-11-25T03:21:05;97258.31;;;0.46;100.00
50774;BME280;36745;48.544;8.918;2022-11-25T03:24:27;97246.69;;;0.45;100.00
50774;BME280;36745;48.544;8.918;2022-11-25T03:27:49;97238.97;;;0.47;100.00
50774;BME280;36745;48.544;8.918;2022-11-25T03:31:10;97239.75;;;0.48;100.00
50774;BME280;36745;48.544;8.918;2022-11-25T03:34:32;97242.84;;;0.50;100.00
50774;BME280;36745;48.544;8.918;2022-11-25T03:37:56;97234.38;;;0.55;100.00
50774;BME280;36745;48.544;8.918;2022-11-25T03:41:17;97229.66;;;0.45;100.00
50774;BME280;36745;48.544;8.918;2022-11-25T03:44:38;97233.19;;;0.49;100.00
50774;BME280;36745;48.544;8.918;2022-11-25T03:48:00;97235.19;;;0.59;100.00
50774;BME280;36745;48.544;8.918;2022-11-25T03:51:21;97238.59;;;0.49;100.00
50774;BME280;36745;48.544;8.918;2022-11-25T03:54:42;97249.09;;;0.54;100.00
50774;BME280;36745;48.544;8.918;2022-11-25T03:58:04;97254.53;;;0.54;100.00
50774;BME280;36745;48.544;8.918;2022-11-25T04:01:25;97251.84;;;0.57;100.00
50774;BME280;36745;48.544;8.918;2022-11-25T04:04:46;97251.47;;;0.59;100.00
50774;BME280;36745;48.544;8.918;2022-11-25T04:08:08;97261.50;;;0.55;100.00
50774;BME280;36745;48.544;8.918;2022-11-25T04:11:29;97248.75;;;0.59;100.00
50774;BME280;36745;48.544;8.918;2022-11-25T04:15:09;97246.41;;;0.57;100.00
50774;BME280;36745;48.544;8.918;2022-11-25T04:18:30;97241.41;;;0.63;100.00
50774;BME280;36745;48.544;8.918;2022-11-25T04:21:52;97236.72;;;0.60;100.00
50774;BME280;36745;48.544;8.918;2022-11-25T04:25:13;97233.66;;;0.61;100.00
50774;BME280;36745;48.544;8.918;2022-11-25T04:28:35;97241.41;;;0.63;100.00
50774;BME280;36745;48.544;8.918;2022-11-25T04:31:56;97249.56;;;0.63;100.00
50774;BME280;36745;48.544;8.918;2022-11-25T04:35:17;97258.44;;;0.60;100.00
50774;BME280;36745;48.544;8.918;2022-11-25T04:38:39;97262.31;;;0.59;100.00
50774;BME280;36745;48.544;8.918;2022-11-25T04:42:00;97262.34;;;0.66;100.00
50774;BME280;36745;48.544;8.918;2022-11-25T04:45:48;97267.69;;;0.55;100.00
50774;BME280;36745;48.544;8.918;2022-11-25T04:49:10;97270.81;;;0.54;100.00
50774;BME280;36745;48.544;8.918;2022-11-25T04:52:31;97268.38;;;0.45;100.00
50774;BME280;36745;48.544;8.918;2022-11-25T04:55:53;97272.31;;;0.48;100.00
50774;BME280;36745;48.544;8.918;2022-11-25T04:59:14;97267.56;;;0.37;100.00
50774;BME280;36745;48.544;8.918;2022-11-25T05:02:59;97253.47;;;0.21;100.00
50774;BME280;36745;48.544;8.918;2022-11-25T05:06:20;97246.09;;;0.22;100.00
50774;BME280;36745;48.544;8.918;2022-11-25T05:09:41;97252.69;;;0.21;100.00
50774;BME280;36745;48.544;8.918;2022-11-25T05:13:03;97250.63;;;0.07;100.00
50774;BME280;36745;48.544;8.918;2022-11-25T05:16:24;97247.09;;;-0.01;100.00
50774;BME280;36745;48.544;8.918;2022-11-25T05:19:45;97252.88;;;-0.02;100.00
50774;BME280;36745;48.544;8.918;2022-11-25T05:23:07;97264.84;;;-0.07;100.00
50774;BME280;36745;48.544;8.918;2022-11-25T05:26:28;97257.19;;;0.06;100.00
50774;BME280;36745;48.544;8.918;2022-11-25T05:29:49;97254.69;;;-0.13;100.00
50774;BME280;36745;48.544;8.918;2022-11-25T05:33:11;97255.03;;;-0.18;100.00
50774;BME280;36745;48.544;8.918;2022-11-25T05:36:32;97262.63;;;-0.31;100.00
50774;BME280;36745;48.544;8.918;2022-11-25T05:39:53;97264.22;;;-0.26;100.00
50774;BME280;36745;48.544;8.918;2022-11-25T05:43:15;97267.69;;;-0.29;100.00
50774;BME280;36745;48.544;8.918;2022-11-25T05:46:36;97266.94;;;-0.26;100.00
50774;BME280;36745;48.544;8.918;2022-11-25T05:49:57;97280.81;;;-0.31;100.00
50774;BME280;36745;48.544;8.918;2022-11-25T05:53:18;97283.16;;;-0.30;100.00
50774;BME280;36745;48.544;8.918;2022-11-25T05:56:40;97284.75;;;-0.25;100.00
50774;BME280;36745;48.544;8.918;2022-11-25T06:00:02;97302.66;;;-0.17;100.00
50774;BME280;36745;48.544;8.918;2022-11-25T06:03:25;97302.66;;;-0.17;100.00
50774;BME280;36745;48.544;8.918;2022-11-25T06:06:46;97300.16;;;-0.33;100.00
50774;BME280;36745;48.544;8.918;2022-11-25T06:10:08;97304.69;;;-0.40;100.00
50774;BME280;36745;48.544;8.918;2022-11-25T06:13:29;97301.50;;;-0.50;100.00
50774;BME280;36745;48.544;8.918;2022-11-25T06:16:50;97293.81;;;-0.44;100.00
50774;BME280;36745;48.544;8.918;2022-11-25T06:20:12;97296.91;;;-0.46;100.00
50774;BME280;36745;48.544;8.918;2022-11-25T06:23:34;97306.97;;;-0.43;100.00
50774;BME280;36745;48.544;8.918;2022-11-25T06:26:56;97313.94;;;-0.45;100.00
50774;BME280;36745;48.544;8.918;2022-11-25T06:30:18;97314.75;;;-0.41;100.00
50774;BME280;36745;48.544;8.918;2022-11-25T06:33:40;97317.91;;;-0.35;100.00
50774;BME280;36745;48.544;8.918;2022-11-25T06:37:01;97327.25;;;-0.33;100.00
50774;BME280;36745;48.544;8.918;2022-11-25T06:40:23;97328.75;;;-0.35;100.00
50774;BME280;36745;48.544;8.918;2022-11-25T06:43:45;97325.59;;;-0.37;100.00
50774;BME280;36745;48.544;8.918;2022-11-25T06:47:06;97323.41;;;-0.28;100.00
50774;BME280;36745;48.544;8.918;2022-11-25T06:50:27;97339.03;;;-0.15;100.00
50774;BME280;36745;48.544;8.918;2022-11-25T06:53:49;97339.59;;;-0.02;100.00
50774;BME280;36745;48.544;8.918;2022-11-25T06:57:11;97349.34;;;0.06;100.00
50774;BME280;36745;48.544;8.918;2022-11-25T07:00:33;97351.72;;;0.11;100.00
50774;BME280;36745;48.544;8.918;2022-11-25T07:03:59;97354.94;;;0.20;100.00
50774;BME280;36745;48.544;8.918;2022-11-25T07:07:20;97356.59;;;0.32;100.00
50774;BME280;36745;48.544;8.918;2022-11-25T07:10:42;97359.00;;;0.40;100.00
50774;BME280;36745;48.544;8.918;2022-11-25T07:14:06;97347.34;;;0.36;100.00
50774;BME280;36745;48.544;8.918;2022-11-25T07:17:27;97345.88;;;0.43;100.00
50774;BME280;36745;48.544;8.918;2022-11-25T07:20:49;97350.13;;;0.43;100.00
50774;BME280;36745;48.544;8.918;2022-11-25T07:24:12;97359.81;;;0.45;100.00
50774;BME280;36745;48.544;8.918;2022-11-25T07:27:34;97372.31;;;0.53;100.00
50774;BME280;36745;48.544;8.918;2022-11-25T07:30:55;97370.13;;;0.69;100.00
50774;BME280;36745;48.544;8.918;2022-11-25T07:34:18;97380.28;;;0.75;100.00
50774;BME280;36745;48.544;8.918;2022-11-25T07:37:40;97371.00;;;0.80;100.00
50774;BME280;36745;48.544;8.918;2022-11-25T07:41:13;97384.22;;;0.85;100.00
50774;BME280;36745;48.544;8.918;2022-11-25T07:44:35;97387.81;;;0.96;100.00
50774;BME280;36745;48.544;8.918;2022-11-25T07:47:56;97387.91;;;1.10;100.00
50774;BME280;36745;48.544;8.918;2022-11-25T07:51:26;97398.47;;;1.22;100.00
50774;BME280;36745;48.544;8.918;2022-11-25T07:54:48;97392.34;;;1.36;100.00
50774;BME280;36745;48.544;8.918;2022-11-25T07:58:09;97391.19;;;1.34;100.00
50774;BME280;36745;48.544;8.918;2022-11-25T08:01:30;97402.44;;;1.36;100.00
50774;BME280;36745;48.544;8.918;2022-11-25T08:04:52;97401.34;;;1.44;100.00
50774;BME280;36745;48.544;8.918;2022-11-25T08:08:13;97409.53;;;1.51;100.00
50774;BME280;36745;48.544;8.918;2022-11-25T08:11:35;97403.78;;;1.59;100.00
50774;BME280;36745;48.544;8.918;2022-11-25T08:14:57;97411.19;;;1.66;100.00
50774;BME280;36745;48.544;8.918;2022-11-25T08:18:18;97401.91;;;1.74;100.00
50774;BME280;36745;48.544;8.918;2022-11-25T08:21:40;97401.56;;;1.83;100.00
50774;BME280;36745;48.544;8.918;2022-11-25T08:25:01;97389.50;;;1.80;100.00
50774;BME280;36745;48.544;8.918;2022-11-25T08:28:23;97386.44;;;1.85;100.00
50774;BME280;36745;48.544;8.918;2022-11-25T08:31:45;97396.97;;;2.01;100.00
50774;BME280;36745;48.544;8.918;2022-11-25T08:35:07;97403.66;;;2.10;100.00
50774;BME280;36745;48.544;8.918;2022-11-25T08:38:28;97415.69;;;2.17;100.00
50774;BME280;36745;48.544;8.918;2022-11-25T08:41:49;97404.09;;;2.27;100.00
50774;BME280;36745;48.544;8.918;2022-11-25T08:45:11;97405.25;;;2.26;100.00
50774;BME280;36745;48.544;8.918;2022-11-25T08:48:32;97411.47;;;2.30;100.00
50774;BME280;36745;48.544;8.918;2022-11-25T08:51:54;97408.41;;;2.42;100.00
50774;BME280;36745;48.544;8.918;2022-11-25T08:55:15;97424.38;;;2.47;100.00
50774;BME280;36745;48.544;8.918;2022-11-25T08:58:37;97425.16;;;2.65;100.00
50774;BME280;36745;48.544;8.918;2022-11-25T09:01:58;97431.84;;;2.85;100.00
50774;BME280;36745;48.544;8.918;2022-11-25T09:05:19;97435.75;;;3.06;100.00
50774;BME280;36745;48.544;8.918;2022-11-25T09:08:42;97425.66;;;3.17;100.00
50774;BME280;36745;48.544;8.918;2022-11-25T09:12:04;97420.97;;;3.31;100.00
50774;BME280;36745;48.544;8.918;2022-11-25T09:15:25;97415.50;;;3.46;100.00
50774;BME280;36745;48.544;8.918;2022-11-25T09:18:47;97414.69;;;3.63;100.00
50774;BME280;36745;48.544;8.918;2022-11-25T09:22:08;97412.34;;;3.75;100.00
50774;BME280;36745;48.544;8.918;2022-11-25T09:25:30;97413.50;;;3.89;100.00
50774;BME280;36745;48.544;8.918;2022-11-25T09:28:51;97413.84;;;4.01;100.00
50774;BME280;36745;48.544;8.918;2022-11-25T09:32:12;97427.47;;;4.05;100.00
50774;BME280;36745;48.544;8.918;2022-11-25T09:35:34;97430.91;;;4.16;100.00
50774;BME280;36745;48.544;8.918;2022-11-25T09:38:56;97437.84;;;4.45;100.00
50774;BME280;36745;48.544;8.918;2022-11-25T09:53:55;97431.25;;;5.05;100.00
50774;BME280;36745;48.544;8.918;2022-11-25T10:00:57;97424.81;;;5.29;100.00
50774;BME280;36745;48.544;8.918;2022-11-25T10:04:39;97433.28;;;5.45;100.00
50774;BME280;36745;48.544;8.918;2022-11-25T10:08:08;97433.59;;;5.55;100.00
50774;BME280;36745;48.544;8.918;2022-11-25T10:11:51;97431.16;;;5.64;100.00
50774;BME280;36745;48.544;8.918;2022-11-25T10:15:34;97430.69;;;5.72;100.00
50774;BME280;36745;48.544;8.918;2022-11-25T10:22:35;97433.72;;;6.22;100.00
50774;BME280;36745;48.544;8.918;2022-11-25T10:26:20;97446.16;;;6.61;100.00
50774;BME280;36745;48.544;8.918;2022-11-25T10:29:44;97441.03;;;6.93;100.00
50774;BME280;36745;48.544;8.918;2022-11-25T10:33:13;97431.16;;;6.99;100.00
50774;BME280;36745;48.544;8.918;2022-11-25T10:36:38;97430.28;;;6.79;100.00
50774;BME280;36745;48.544;8.918;2022-11-25T10:40:01;97433.38;;;6.81;100.00
50774;BME280;36745;48.544;8.918;2022-11-25T10:43:22;97438.91;;;6.78;100.00
50774;BME280;36745;48.544;8.918;2022-11-25T10:54:12;97459.84;;;6.91;100.00
50774;BME280;36745;48.544;8.918;2022-11-25T10:57:34;97442.22;;;6.92;100.00
50774;BME280;36745;48.544;8.918;2022-11-25T11:01:21;97452.69;;;7.01;100.00
50774;BME280;36745;48.544;8.918;2022-11-25T11:05:15;97443.22;;;7.05;100.00
50774;BME280;36745;48.544;8.918;2022-11-25T11:08:39;97444.34;;;7.08;100.00
50774;BME280;36745;48.544;8.918;2022-11-25T11:15:46;97460.06;;;7.31;100.00
50774;BME280;36745;48.544;8.918;2022-11-25T11:19:25;97460.06;;;7.31;100.00
50774;BME280;36745;48.544;8.918;2022-11-25T11:22:56;97456.13;;;7.32;100.00
50774;BME280;36745;48.544;8.918;2022-11-25T11:26:33;97456.03;;;7.39;100.00
50774;BME280;36745;48.544;8.918;2022-11-25T11:30:14;97458.28;;;7.44;100.00
50774;BME280;36745;48.544;8.918;2022-11-25T11:33:42;97464.50;;;7.48;100.00
50774;BME280;36745;48.544;8.918;2022-11-25T11:55:58;97470.22;;;7.80;100.00
50774;BME280;36745;48.544;8.918;2022-11-25T11:59:44;97472.72;;;7.94;100.00
50774;BME280;36745;48.544;8.918;2022-11-25T12:03:15;97470.31;;;8.20;100.00
50774;BME280;36745;48.544;8.918;2022-11-25T12:06:40;97469.09;;;8.44;100.00
50774;BME280;36745;48.544;8.918;2022-11-25T12:10:09;97473.53;;;8.58;100.00
50774;BME280;36745;48.544;8.918;2022-11-25T12:17:27;97476.41;;;8.70;100.00
50774;BME280;36745;48.544;8.918;2022-11-25T12:28:28;97481.28;;;8.82;100.00
50774;BME280;36745;48.544;8.918;2022-11-25T12:31:57;97490.22;;;8.87;100.00
50774;BME280;36745;48.544;8.918;2022-11-25T12:35:52;97492.47;;;8.92;100.00
50774;BME280;36745;48.544;8.918;2022-11-25T12:39:25;97496.22;;;8.81;100.00
50774;BME280;36745;48.544;8.918;2022-11-25T12:42:49;97490.44;;;8.76;100.00
50774;BME280;36745;48.544;8.918;2022-11-25T12:46:22;97492.84;;;8.74;100.00
50774;BME280;36745;48.544;8.918;2022-11-25T12:49:47;97492.75;;;8.77;100.00
50774;BME280;36745;48.544;8.918;2022-11-25T12:53:21;97494.31;;;8.78;100.00
50774;BME280;36745;48.544;8.918;2022-11-25T13:04:27;97515.06;;;9.19;100.00
50774;BME280;36745;48.544;8.918;2022-11-25T13:08:10;97522.47;;;9.22;100.00
50774;BME280;36745;48.544;8.918;2022-11-25T13:11:57;97537.41;;;9.21;100.00
50774;BME280;36745;48.544;8.918;2022-11-25T13:15:45;97535.84;;;9.20;100.00
50774;BME280;36745;48.544;8.918;2022-11-25T13:19:08;97536.72;;;9.17;100.00
50774;BME280;36745;48.544;8.918;2022-11-25T13:22:32;97547.72;;;9.17;100.00
50774;BME280;36745;48.544;8.918;2022-11-25T13:29:53;97548.91;;;9.16;99.97
50774;BME280;36745;48.544;8.918;2022-11-25T13:36:53;97566.72;;;9.63;100.00
50774;BME280;36745;48.544;8.918;2022-11-25T13:40:36;97562.81;;;9.81;100.00
50774;BME280;36745;48.544;8.918;2022-11-25T13:47:38;97577.09;;;9.76;99.13
50774;BME280;36745;48.544;8.918;2022-11-25T13:51:17;97586.38;;;9.82;98.59
50774;BME280;36745;48.544;8.918;2022-11-25T13:54:50;97595.22;;;9.73;97.99
50774;BME280;36745;48.544;8.918;2022-11-25T13:58:19;97597.00;;;9.63;97.97
50774;BME280;36745;48.544;8.918;2022-11-25T14:09:08;97616.50;;;9.17;96.88
50774;BME280;36745;48.544;8.918;2022-11-25T14:26:58;97632.53;;;8.79;96.98
50774;BME280;36745;48.544;8.918;2022-11-25T14:30:20;97638.53;;;8.74;96.25
50774;BME280;36745;48.544;8.918;2022-11-25T14:33:52;97653.97;;;8.64;96.74
50774;BME280;36745;48.544;8.918;2022-11-25T14:37:19;97653.97;;;8.64;96.22
50774;BME280;36745;48.544;8.918;2022-11-25T14:44:21;97662.25;;;8.41;96.02
50774;BME280;36745;48.544;8.918;2022-11-25T14:47:44;97666.25;;;8.36;95.86
50774;BME280;36745;48.544;8.918;2022-11-25T14:51:08;97670.22;;;8.32;95.21
50774;BME280;36745;48.544;8.918;2022-11-25T14:54:30;97676.59;;;8.25;95.18
50774;BME280;36745;48.544;8.918;2022-11-25T14:57:51;97683.00;;;8.15;94.83
50774;BME280;36745;48.544;8.918;2022-11-25T15:01:22;97686.22;;;8.10;94.99
50774;BME280;36745;48.544;8.918;2022-11-25T15:04:44;97686.28;;;8.07;95.01
50774;BME280;36745;48.544;8.918;2022-11-25T15:08:15;97686.03;;;7.97;95.04
50774;BME280;36745;48.544;8.918;2022-11-25T15:11:38;97695.06;;;7.94;95.29
50774;BME280;36745;48.544;8.918;2022-11-25T15:14:59;97698.97;;;7.97;95.31
50774;BME280;36745;48.544;8.918;2022-11-25T15:18:22;97713.47;;;7.97;94.75
50774;BME280;36745;48.544;8.918;2022-11-25T15:21:45;97713.88;;;7.96;94.98
50774;BME280;36745;48.544;8.918;2022-11-25T15:25:14;97717.94;;;7.88;94.67
50774;BME280;36745;48.544;8.918;2022-11-25T15:28:37;97716.44;;;7.80;94.73
50774;BME280;36745;48.544;8.918;2022-11-25T15:31:59;97728.25;;;7.77;94.90
50774;BME280;36745;48.544;8.918;2022-11-25T15:35:23;97735.41;;;7.71;94.64
50774;BME280;36745;48.544;8.918;2022-11-25T15:38:45;97726.91;;;7.58;94.31
50774;BME280;36745;48.544;8.918;2022-11-25T15:42:19;97728.59;;;7.48;94.58
50774;BME280;36745;48.544;8.918;2022-11-25T15:45:43;97735.72;;;7.42;94.76
50774;BME280;36745;48.544;8.918;2022-11-25T15:49:13;97742.44;;;7.38;95.23
50774;BME280;36745;48.544;8.918;2022-11-25T15:52:37;97748.28;;;7.40;95.26
50774;BME280;36745;48.544;8.918;2022-11-25T15:56:01;97751.13;;;7.33;95.21
50774;BME280;36745;48.544;8.918;2022-11-25T15:59:44;97749.22;;;7.26;95.35
50774;BME280;36745;48.544;8.918;2022-11-25T16:03:19;97760.13;;;7.30;95.80
50774;BME280;36745;48.544;8.918;2022-11-25T16:06:52;97753.13;;;7.29;95.51
50774;BME280;36745;48.544;8.918;2022-11-25T16:10:22;97755.63;;;7.12;95.52
50774;BME280;36745;48.544;8.918;2022-11-25T16:13:49;97754.56;;;6.99;95.41
50774;BME280;36745;48.544;8.918;2022-11-25T16:17:11;97757.13;;;6.80;95.60
50774;BME280;36745;48.544;8.918;2022-11-25T16:20:34;97761.50;;;6.66;95.59
50774;BME280;36745;48.544;8.918;2022-11-25T16:23:57;97769.41;;;6.54;95.63
50774;BME280;36745;48.544;8.918;2022-11-25T16:27:27;97777.75;;;6.40;95.97
50774;BME280;36745;48.544;8.918;2022-11-25T16:30:50;97783.69;;;6.31;96.82
50774;BME280;36745;48.544;8.918;2022-11-25T16:34:17;97789.88;;;6.39;97.29
50774;BME280;36745;48.544;8.918;2022-11-25T16:37:39;97789.09;;;6.42;97.49
50774;BME280;36745;48.544;8.918;2022-11-25T16:41:21;97804.75;;;6.38;97.23
50774;BME280;36745;48.544;8.918;2022-11-25T16:44:46;97808.28;;;6.35;97.48
50774;BME280;36745;48.544;8.918;2022-11-25T16:48:16;97812.25;;;6.30;97.85
50774;BME280;36745;48.544;8.918;2022-11-25T16:51:38;97805.63;;;6.24;98.03
50774;BME280;36745;48.544;8.918;2022-11-25T16:54:59;97816.59;;;6.20;98.01
50774;BME280;36745;48.544;8.918;2022-11-25T16:58:23;97820.13;;;6.10;98.21
50774;BME280;36745;48.544;8.918;2022-11-25T17:01:44;97821.38;;;6.02;98.33
50774;BME280;36745;48.544;8.918;2022-11-25T17:05:19;97830.00;;;5.90;98.10
50774;BME280;36745;48.544;8.918;2022-11-25T17:08:41;97834.72;;;5.79;98.45
50774;BME280;36745;48.544;8.918;2022-11-25T17:12:04;97833.13;;;5.78;98.66
50774;BME280;36745;48.544;8.918;2022-11-25T17:15:36;97835.88;;;5.78;98.51
50774;BME280;36745;48.544;8.918;2022-11-25T17:18:58;97839.81;;;5.70;98.96
50774;BME280;36745;48.544;8.918;2022-11-25T17:22:23;97844.91;;;5.68;99.43
50774;BME280;36745;48.544;8.918;2022-11-25T17:25:45;97848.84;;;5.67;98.64
50774;BME280;36745;48.544;8.918;2022-11-25T17:29:15;97858.25;;;5.41;98.66
50774;BME280;36745;48.544;8.918;2022-11-25T17:32:40;97864.53;;;5.34;99.39
50774;BME280;36745;48.544;8.918;2022-11-25T17:36:01;97866.84;;;5.32;99.64
50774;BME280;36745;48.544;8.918;2022-11-25T17:39:22;97878.19;;;5.27;99.19
50774;BME280;36745;48.544;8.918;2022-11-25T17:42:45;97891.84;;;5.27;98.58
50774;BME280;36745;48.544;8.918;2022-11-25T17:46:13;97880.91;;;5.06;98.93
50774;BME280;36745;48.544;8.918;2022-11-25T17:49:35;97880.16;;;5.02;99.85
50774;BME280;36745;48.544;8.918;2022-11-25T17:52:57;97896.53;;;5.09;99.97
50774;BME280;36745;48.544;8.918;2022-11-25T17:56:27;97897.31;;;5.10;100.00
50774;BME280;36745;48.544;8.918;2022-11-25T17:59:49;97899.66;;;5.15;100.00
50774;BME280;36745;48.544;8.918;2022-11-25T18:03:12;97913.69;;;5.13;100.00
50774;BME280;36745;48.544;8.918;2022-11-25T18:06:34;97923.88;;;5.23;100.00
50774;BME280;36745;48.544;8.918;2022-11-25T18:09:56;97925.41;;;5.24;99.62
50774;BME280;36745;48.544;8.918;2022-11-25T18:13:17;97930.91;;;5.17;100.00
50774;BME280;36745;48.544;8.918;2022-11-25T18:16:42;97928.53;;;5.30;100.00
50774;BME280;36745;48.544;8.918;2022-11-25T18:20:19;97930.91;;;5.31;100.00
50774;BME280;36745;48.544;8.918;2022-11-25T18:23:41;97932.88;;;5.34;100.00
50774;BME280;36745;48.544;8.918;2022-11-25T18:27:05;97946.13;;;5.43;100.00
50774;BME280;36745;48.544;8.918;2022-11-25T18:30:28;97955.88;;;5.37;100.00
50774;BME280;36745;48.544;8.918;2022-11-25T18:33:50;97957.84;;;5.40;100.00
50774;BME280;36745;48.544;8.918;2022-11-25T18:37:12;97967.63;;;5.48;100.00
50774;BME280;36745;48.544;8.918;2022-11-25T18:40:35;97973.88;;;5.48;100.00
50774;BME280;36745;48.544;8.918;2022-11-25T18:44:03;97966.03;;;5.65;100.00
50774;BME280;36745;48.544;8.918;2022-11-25T18:47:25;97983.22;;;5.62;100.00
50774;BME280;36745;48.544;8.918;2022-11-25T18:50:48;97980.91;;;5.49;100.00
50774;BME280;36745;48.544;8.918;2022-11-25T18:54:10;97987.13;;;5.43;100.00
50774;BME280;36745;48.544;8.918;2022-11-25T18:57:32;97992.22;;;5.37;100.00
50774;BME280;36745;48.544;8.918;2022-11-25T19:00:58;97984.03;;;5.34;100.00
50774;BME280;36745;48.544;8.918;2022-11-25T19:04:22;97993.38;;;5.36;100.00
50774;BME280;36745;48.544;8.918;2022-11-25T19:07:44;97994.53;;;5.35;100.00
50774;BME280;36745;48.544;8.918;2022-11-25T19:11:26;98003.53;;;5.32;100.00
50774;BME280;36745;48.544;8.918;2022-11-25T19:14:48;98010.16;;;5.31;100.00
50774;BME280;36745;48.544;8.918;2022-11-25T19:18:13;98022.25;;;5.20;100.00
50774;BME280;36745;48.544;8.918;2022-11-25T19:21:36;98027.69;;;5.05;100.00
50774;BME280;36745;48.544;8.918;2022-11-25T19:24:58;98033.88;;;4.92;100.00
50774;BME280;36745;48.544;8.918;2022-11-25T19:28:20;98032.69;;;4.79;100.00
50774;BME280;36745;48.544;8.918;2022-11-25T19:31:42;98037.31;;;4.68;100.00
50774;BME280;36745;48.544;8.918;2022-11-25T19:35:05;98047.00;;;4.54;100.00
50774;BME280;36745;48.544;8.918;2022-11-25T19:38:28;98045.72;;;4.34;100.00
50774;BME280;36745;48.544;8.918;2022-11-25T19:41:51;98056.59;;;4.27;100.00
50774;BME280;36745;48.544;8.918;2022-11-25T19:45:14;98056.22;;;4.32;100.00
50774;BME280;36745;48.544;8.918;2022-11-25T19:48:38;98061.66;;;4.25;100.00
50774;BME280;36745;48.544;8.918;2022-11-25T19:51:59;98068.63;;;4.19;100.00